createdAt,value
2018-12-31T00:00:47.208Z,8.05
2018-12-31T00:03:50.498Z,8.14
2018-12-31T00:06:53.404Z,8.06
2018-12-31T00:09:57.088Z,8.15
2018-12-31T00:12:59.985Z,8.21
2018-12-31T00:16:03.007Z,8.20
2018-12-31T00:19:06.038Z,8.19
2018-12-31T00:22:09.335Z,8.21
2018-12-31T00:25:12.537Z,8.27
2018-12-31T00:28:15.460Z,8.22
2018-12-31T00:31:19.030Z,8.18
2018-12-31T00:34:21.983Z,8.23
2018-12-31T00:37:25.318Z,8.25
2018-12-31T00:40:29.342Z,8.29
2018-12-31T00:43:33.252Z,8.23
2018-12-31T00:46:36.529Z,8.31
2018-12-31T00:49:40.151Z,8.32
2018-12-31T00:52:43.739Z,8.36
2018-12-31T00:55:46.659Z,8.45
2018-12-31T00:58:49.842Z,8.39
2018-12-31T01:01:52.761Z,8.38
2018-12-31T01:04:55.983Z,8.38
2018-12-31T01:07:58.896Z,8.38
2018-12-31T01:11:02.501Z,8.33
2018-12-31T01:14:05.771Z,8.40
2018-12-31T01:17:08.690Z,8.43
2018-12-31T01:20:11.596Z,8.44
2018-12-31T01:23:14.509Z,8.41
2018-12-31T01:26:17.723Z,8.44
2018-12-31T01:29:20.666Z,8.45
2018-12-31T01:32:23.579Z,8.38
2018-12-31T01:35:26.496Z,8.46
2018-12-31T01:38:29.689Z,8.51
2018-12-31T01:41:32.952Z,8.48
2018-12-31T01:44:36.280Z,8.45
2018-12-31T01:47:39.889Z,8.44
2018-12-31T01:50:55.108Z,8.46
2018-12-31T01:54:18.152Z,8.47
2018-12-31T01:57:33.632Z,8.41
2018-12-31T02:00:49.457Z,8.39
2018-12-31T02:04:12.144Z,8.53
2018-12-31T02:07:28.124Z,8.44
2018-12-31T02:10:44.853Z,8.46
2018-12-31T02:14:07.244Z,8.52
2018-12-31T02:17:30.550Z,8.46
2018-12-31T02:20:46.158Z,8.42
2018-12-31T02:24:08.516Z,8.47
2018-12-31T02:27:23.608Z,8.38
2018-12-31T02:30:45.985Z,8.41
2018-12-31T02:34:01.236Z,8.30
2018-12-31T02:37:16.660Z,8.49
2018-12-31T02:40:39.045Z,8.46
2018-12-31T02:43:54.269Z,8.49
2018-12-31T02:47:09.634Z,8.40
2018-12-31T02:50:32.653Z,8.40
2018-12-31T02:53:48.644Z,8.44
2018-12-31T02:57:11.371Z,8.38
2018-12-31T03:00:27.163Z,8.42
2018-12-31T03:03:43.296Z,8.30
2018-12-31T03:07:05.674Z,8.48
2018-12-31T03:10:21.356Z,8.41
2018-12-31T03:13:36.968Z,8.45
2018-12-31T03:16:59.615Z,8.51
2018-12-31T03:20:15.012Z,8.53
2018-12-31T03:23:37.758Z,8.46
2018-12-31T03:26:52.822Z,8.47
2018-12-31T03:30:15.241Z,8.50
2018-12-31T03:33:30.783Z,8.43
2018-12-31T03:36:53.140Z,8.44
2018-12-31T03:40:08.754Z,8.04
2018-12-31T03:43:31.424Z,8.47
2018-12-31T03:46:47.276Z,8.43
2018-12-31T03:50:09.950Z,8.40
2018-12-31T03:53:25.723Z,8.45
2018-12-31T03:56:50.400Z,8.40
2018-12-31T04:00:25.968Z,8.45
2018-12-31T04:03:48.746Z,8.45
2018-12-31T04:07:04.224Z,8.53
2018-12-31T04:10:26.600Z,8.48
2018-12-31T04:13:42.468Z,8.49
2018-12-31T04:17:04.903Z,8.40
2018-12-31T04:20:20.940Z,8.48
2018-12-31T04:23:43.568Z,7.91
2018-12-31T04:26:59.454Z,8.47
2018-12-31T04:30:16.031Z,8.43
2018-12-31T04:33:30.992Z,8.45
2018-12-31T04:36:53.392Z,8.41
2018-12-31T04:40:08.960Z,8.49
2018-12-31T04:43:31.323Z,8.42
2018-12-31T04:46:46.995Z,7.94
2018-12-31T04:50:09.378Z,8.42
2018-12-31T04:53:25.344Z,8.10
2018-12-31T04:56:48.375Z,8.49
2018-12-31T05:00:04.408Z,8.02
2018-12-31T05:06:55.498Z,8.47
2018-12-31T05:10:18.249Z,8.55
2018-12-31T05:13:35.102Z,8.44
2018-12-31T05:16:57.463Z,8.46
2018-12-31T05:20:01.088Z,8.16
2018-12-31T05:23:23.780Z,8.43
2018-12-31T05:26:39.529Z,8.46
2018-12-31T05:29:54.670Z,8.45
2018-12-31T05:33:10.273Z,8.48
2018-12-31T05:36:32.958Z,8.51
2018-12-31T05:39:48.630Z,8.45
2018-12-31T05:43:11.033Z,8.51
2018-12-31T05:46:26.390Z,8.55
2018-12-31T05:49:48.784Z,8.25
2018-12-31T05:53:04.904Z,8.43
2018-12-31T05:56:27.279Z,8.67
2018-12-31T05:59:42.952Z,8.68
2018-12-31T06:03:05.378Z,8.60
2018-12-31T06:06:20.980Z,8.31
2018-12-31T06:09:43.355Z,8.71
2018-12-31T06:12:58.817Z,8.68
2018-12-31T06:16:21.523Z,8.72
2018-12-31T06:19:37.570Z,8.73
2018-12-31T06:22:59.951Z,8.68
2018-12-31T06:26:15.251Z,8.76
2018-12-31T06:29:28.722Z,8.75
2018-12-31T06:32:45.562Z,8.78
2018-12-31T06:36:08.234Z,8.74
2018-12-31T06:39:24.325Z,8.78
2018-12-31T06:42:47.012Z,8.79
2018-12-31T06:46:02.712Z,8.74
2018-12-31T06:49:26.156Z,8.68
2018-12-31T06:52:41.220Z,8.79
2018-12-31T06:56:03.617Z,8.78
2018-12-31T06:59:18.672Z,8.83
2018-12-31T07:02:41.041Z,8.76
2018-12-31T07:05:56.449Z,8.49
2018-12-31T07:09:19.454Z,8.84
2018-12-31T07:12:34.944Z,8.89
2018-12-31T07:15:57.402Z,8.64
2018-12-31T07:19:12.691Z,8.62
2018-12-31T07:22:35.089Z,8.79
2018-12-31T07:25:51.205Z,8.85
2018-12-31T07:29:07.330Z,8.85
2018-12-31T07:32:23.140Z,8.51
2018-12-31T07:35:38.768Z,8.89
2018-12-31T07:39:01.405Z,8.90
2018-12-31T07:42:18.550Z,8.92
2018-12-31T07:45:40.931Z,8.89
2018-12-31T07:48:56.400Z,8.38
2018-12-31T07:52:12.423Z,8.86
2018-12-31T07:55:35.238Z,8.89
2018-12-31T07:58:50.799Z,8.96
2018-12-31T08:02:13.558Z,8.90
2018-12-31T08:05:29.462Z,8.94
2018-12-31T08:08:51.828Z,8.95
2018-12-31T08:12:08.277Z,8.95
2018-12-31T08:15:30.673Z,8.93
2018-12-31T08:18:46.337Z,8.94
2018-12-31T08:22:01.879Z,8.90
2018-12-31T08:25:24.241Z,8.96
2018-12-31T08:28:40.415Z,8.98
2018-12-31T08:32:02.846Z,8.96
2018-12-31T08:35:18.546Z,8.99
2018-12-31T08:38:33.577Z,8.96
2018-12-31T08:45:32.089Z,8.99
2018-12-31T08:48:47.220Z,9.04
2018-12-31T08:52:09.631Z,8.88
2018-12-31T08:55:24.822Z,9.12
2018-12-31T08:58:40.495Z,8.95
2018-12-31T09:02:03.230Z,9.06
2018-12-31T09:05:18.687Z,9.07
2018-12-31T09:08:41.400Z,9.03
2018-12-31T09:11:57.117Z,9.08
2018-12-31T09:15:12.523Z,9.02
2018-12-31T09:18:34.909Z,9.03
2018-12-31T09:21:50.090Z,9.03
2018-12-31T09:25:05.289Z,9.17
2018-12-31T09:28:20.568Z,9.10
2018-12-31T09:31:43.322Z,9.14
2018-12-31T09:34:58.369Z,9.16
2018-12-31T09:38:20.765Z,9.17
2018-12-31T09:41:36.218Z,9.19
2018-12-31T09:44:58.626Z,9.18
2018-12-31T09:48:13.714Z,9.25
2018-12-31T09:51:36.127Z,9.16
2018-12-31T09:54:51.529Z,9.22
2018-12-31T09:58:13.897Z,9.26
2018-12-31T10:01:29.457Z,10.06
2018-12-31T10:04:51.830Z,9.49
2018-12-31T10:08:07.578Z,9.33
2018-12-31T10:11:30.646Z,9.29
2018-12-31T10:14:46.078Z,9.36
2018-12-31T10:18:01.259Z,9.33
2018-12-31T10:21:23.656Z,8.93
2018-12-31T10:24:39.341Z,8.91
2018-12-31T10:27:54.831Z,9.29
2018-12-31T10:31:17.185Z,9.29
2018-12-31T10:34:35.020Z,9.27
2018-12-31T10:37:57.812Z,9.25
2018-12-31T10:41:13.301Z,9.33
2018-12-31T10:44:29.194Z,9.28
2018-12-31T10:47:52.293Z,9.27
2018-12-31T10:51:07.847Z,9.27
2018-12-31T10:54:23.268Z,9.27
2018-12-31T10:57:45.781Z,9.33
2018-12-31T11:01:01.318Z,9.46
2018-12-31T11:04:16.741Z,9.49
2018-12-31T11:07:39.190Z,9.33
2018-12-31T11:10:55.064Z,9.39
2018-12-31T11:14:11.014Z,9.40
2018-12-31T11:17:34.784Z,9.37
2018-12-31T11:20:50.297Z,9.42
2018-12-31T11:24:05.396Z,9.17
2018-12-31T11:27:20.684Z,9.37
2018-12-31T11:34:46.543Z,9.35
2018-12-31T11:38:08.930Z,9.38
2018-12-31T11:41:24.509Z,9.36
2018-12-31T11:44:39.720Z,9.39
2018-12-31T11:48:02.141Z,9.34
2018-12-31T11:51:17.533Z,9.40
2018-12-31T11:54:20.839Z,9.32
2018-12-31T11:57:24.028Z,9.44
2018-12-31T12:00:39.080Z,9.35
2018-12-31T12:04:01.790Z,9.41
2018-12-31T12:07:17.541Z,9.35
2018-12-31T12:10:20.808Z,9.38
2018-12-31T12:13:35.963Z,9.44
2018-12-31T12:16:58.401Z,9.28
2018-12-31T12:20:13.675Z,9.38
2018-12-31T12:23:36.364Z,9.33
2018-12-31T12:26:51.524Z,9.43
2018-12-31T12:30:14.418Z,9.37
2018-12-31T12:33:51.359Z,9.37
2018-12-31T12:37:13.750Z,9.24
2018-12-31T12:40:29.086Z,9.27
2018-12-31T12:43:51.458Z,9.35
2018-12-31T12:47:08.323Z,9.12
2018-12-31T12:50:31.274Z,9.40
2018-12-31T12:53:55.165Z,9.46
2018-12-31T12:57:17.764Z,9.38
2018-12-31T13:00:33.554Z,9.46
2018-12-31T13:03:56.588Z,9.41
2018-12-31T13:07:12.187Z,9.67
2018-12-31T13:10:35.016Z,9.69
2018-12-31T13:13:50.562Z,9.53
2018-12-31T13:17:12.977Z,9.48
2018-12-31T13:20:28.204Z,9.46
2018-12-31T13:23:50.711Z,9.40
2018-12-31T13:27:06.651Z,9.46
2018-12-31T13:30:29.374Z,9.27
2018-12-31T13:33:45.274Z,9.49
2018-12-31T13:37:07.689Z,9.52
2018-12-31T13:40:23.698Z,9.55
2018-12-31T13:43:39.969Z,9.55
2018-12-31T13:47:02.730Z,9.54
2018-12-31T13:50:18.244Z,9.52
2018-12-31T13:53:34.455Z,9.52
2018-12-31T13:56:56.817Z,8.93
2018-12-31T14:00:11.891Z,9.36
2018-12-31T14:03:34.744Z,9.40
2018-12-31T14:06:50.517Z,9.39
2018-12-31T14:10:13.699Z,9.47
2018-12-31T14:13:29.515Z,9.42
2018-12-31T14:16:51.973Z,9.52
2018-12-31T14:20:07.797Z,9.47
2018-12-31T14:23:30.186Z,9.47
2018-12-31T14:26:45.946Z,9.48
2018-12-31T14:30:01.541Z,9.49
2018-12-31T14:33:24.215Z,9.47
2018-12-31T14:36:39.727Z,9.51
2018-12-31T14:40:03.239Z,9.45
2018-12-31T14:43:18.266Z,9.12
2018-12-31T14:46:34.071Z,9.41
2018-12-31T14:49:56.829Z,9.44
2018-12-31T14:53:12.607Z,9.40
2018-12-31T14:56:27.896Z,9.35
2018-12-31T14:59:50.277Z,9.38
2018-12-31T15:03:05.712Z,9.40
2018-12-31T15:06:20.832Z,9.31
2018-12-31T15:09:43.191Z,9.31
2018-12-31T15:13:00.242Z,9.31
2018-12-31T15:16:22.624Z,9.41
2018-12-31T15:19:37.704Z,9.38
2018-12-31T15:22:53.816Z,9.18
2018-12-31T15:26:16.516Z,9.17
2018-12-31T15:29:31.900Z,9.00
2018-12-31T15:32:47.275Z,9.40
2018-12-31T15:36:09.642Z,9.43
2018-12-31T15:39:24.878Z,9.40
2018-12-31T15:42:47.667Z,9.33
2018-12-31T15:46:03.719Z,9.43
2018-12-31T15:49:26.106Z,9.39
2018-12-31T15:52:41.439Z,9.42
2018-12-31T15:56:03.815Z,9.42
2018-12-31T15:59:19.015Z,9.37
2018-12-31T16:02:41.784Z,9.38
2018-12-31T16:05:57.272Z,9.29
2018-12-31T16:09:20.695Z,9.13
2018-12-31T16:12:36.322Z,9.40
2018-12-31T16:15:52.253Z,9.38
2018-12-31T16:19:15.249Z,9.37
2018-12-31T16:22:39.208Z,9.28
2018-12-31T16:25:55.057Z,11.16
2018-12-31T16:29:10.187Z,13.37
2018-12-31T16:32:25.367Z,12.14
2018-12-31T16:35:47.752Z,10.67
2018-12-31T16:39:06.039Z,10.17
2018-12-31T16:42:21.247Z,9.34
2018-12-31T16:45:43.995Z,9.70
2018-12-31T16:48:59.366Z,9.49
2018-12-31T16:52:22.769Z,9.36
2018-12-31T16:55:37.784Z,9.40
2018-12-31T16:59:00.161Z,9.38
2018-12-31T17:02:15.417Z,9.36
2018-12-31T17:05:38.373Z,8.93
2018-12-31T17:09:15.925Z,9.33
2018-12-31T17:12:38.312Z,9.36
2018-12-31T17:15:53.874Z,9.23
2018-12-31T17:19:09.365Z,9.18
2018-12-31T17:22:32.216Z,9.19
2018-12-31T17:25:47.509Z,9.14
2018-12-31T17:29:02.980Z,9.18
2018-12-31T17:32:25.357Z,9.17
2018-12-31T17:35:40.870Z,9.15
2018-12-31T17:38:56.245Z,8.96
2018-12-31T17:42:18.600Z,9.08
2018-12-31T17:45:34.074Z,9.19
2018-12-31T17:48:56.755Z,9.08
2018-12-31T17:52:12.483Z,9.14
2018-12-31T17:55:27.622Z,9.14
2018-12-31T17:58:50.226Z,9.09
2018-12-31T18:02:14.543Z,9.11
2018-12-31T18:05:37.143Z,9.15
2018-12-31T18:09:14.420Z,9.08
2018-12-31T18:12:37.146Z,9.01
2018-12-31T18:15:52.829Z,9.07
2018-12-31T18:19:08.812Z,9.01
2018-12-31T18:22:31.483Z,9.02
2018-12-31T18:25:55.465Z,8.99
2018-12-31T18:29:18.241Z,9.00
2018-12-31T18:32:33.899Z,9.03
2018-12-31T18:35:56.288Z,8.96
2018-12-31T18:39:11.840Z,8.71
2018-12-31T18:42:34.213Z,9.02
2018-12-31T18:45:49.548Z,8.95
2018-12-31T18:49:11.932Z,8.93
2018-12-31T18:52:26.976Z,8.95
2018-12-31T18:55:42.564Z,8.98
2018-12-31T18:59:04.950Z,9.00
2018-12-31T19:02:20.807Z,8.65
2018-12-31T19:05:36.010Z,9.26
2018-12-31T19:08:58.394Z,9.08
2018-12-31T19:12:13.492Z,9.18
2018-12-31T19:15:36.512Z,8.65
2018-12-31T19:18:52.648Z,9.02
2018-12-31T19:22:08.663Z,9.08
2018-12-31T19:25:23.796Z,9.11
2018-12-31T19:28:38.990Z,9.04
2018-12-31T19:31:54.832Z,9.03
2018-12-31T19:35:17.542Z,8.51
2018-12-31T19:38:32.996Z,9.01
2018-12-31T19:41:48.228Z,8.96
2018-12-31T19:45:10.883Z,8.97
2018-12-31T19:48:26.869Z,9.00
2018-12-31T19:51:49.244Z,8.90
2018-12-31T19:55:06.984Z,8.87
2018-12-31T19:58:22.485Z,8.92
2018-12-31T20:01:45.190Z,8.96
2018-12-31T20:05:01.688Z,8.86
2018-12-31T20:08:24.064Z,8.91
2018-12-31T20:11:37.704Z,8.89
2018-12-31T20:18:16.473Z,8.87
2018-12-31T20:21:39.170Z,8.79
2018-12-31T20:24:54.414Z,8.97
2018-12-31T20:28:16.876Z,8.86
2018-12-31T20:31:32.521Z,8.83
2018-12-31T20:38:36.724Z,8.71
2018-12-31T20:41:59.113Z,8.79
2018-12-31T20:45:14.645Z,8.75
2018-12-31T20:48:37.362Z,8.72
2018-12-31T20:51:52.980Z,8.38
2018-12-31T20:55:15.388Z,8.87
2018-12-31T20:58:30.543Z,8.93
2018-12-31T21:01:53.745Z,8.85
2018-12-31T21:05:31.208Z,8.77
2018-12-31T21:08:54.145Z,8.92
2018-12-31T21:12:09.654Z,8.29
2018-12-31T21:15:32.355Z,8.75
2018-12-31T21:18:48.132Z,8.81
2018-12-31T21:22:03.418Z,8.77
2018-12-31T21:25:25.803Z,8.81
2018-12-31T21:28:41.961Z,8.86
2018-12-31T21:32:04.319Z,8.84
2018-12-31T21:35:19.612Z,8.86
2018-12-31T21:38:41.999Z,8.86
2018-12-31T21:41:59.267Z,8.86
2018-12-31T21:45:15.435Z,8.87
2018-12-31T21:48:38.406Z,8.50
2018-12-31T21:51:54.027Z,8.83
2018-12-31T21:55:16.763Z,8.62
2018-12-31T21:58:32.644Z,8.87
2018-12-31T22:01:47.917Z,8.45
2018-12-31T22:05:10.643Z,8.83
2018-12-31T22:08:26.189Z,8.87
2018-12-31T22:11:41.756Z,8.93
2018-12-31T22:15:07.345Z,9.06
2018-12-31T22:18:22.962Z,8.90
2018-12-31T22:21:38.397Z,8.95
2018-12-31T22:24:53.857Z,8.87
2018-12-31T22:28:09.541Z,8.79
2018-12-31T22:31:32.223Z,8.79
2018-12-31T22:34:48.381Z,8.88
2018-12-31T22:38:03.563Z,8.85
2018-12-31T22:41:25.949Z,8.82
2018-12-31T22:44:41.467Z,8.67
2018-12-31T22:47:56.637Z,8.44
2018-12-31T22:51:19.039Z,8.60
2018-12-31T22:54:34.142Z,8.70
2018-12-31T22:57:56.838Z,8.75
2018-12-31T23:01:12.039Z,8.64
2018-12-31T23:04:35.092Z,8.62
2018-12-31T23:07:50.465Z,8.62
2018-12-31T23:11:12.832Z,8.64
2018-12-31T23:14:28.647Z,8.60
2018-12-31T23:17:51.348Z,8.57
2018-12-31T23:21:06.644Z,8.61
2018-12-31T23:24:29.362Z,8.57
2018-12-31T23:27:45.526Z,8.11
2018-12-31T23:31:09.257Z,8.62
2018-12-31T23:34:24.801Z,8.57
2018-12-31T23:37:47.184Z,8.53
2018-12-31T23:41:02.132Z,8.53
2018-12-31T23:44:25.860Z,8.39
2018-12-31T23:47:41.572Z,8.45
2018-12-31T23:51:04.322Z,7.98
2018-12-31T23:54:28.096Z,8.52
2018-12-31T23:57:50.703Z,8.49
